地図

経路データ

SID SEASON NUMBER BASIN SUBBASIN NAME ISO_TIME NATURE LAT LON WMO_WIND WMO_PRES WMO_AGENCY TRACK_TYPE DIST2LAND LANDFALL IFLAG USA_AGENCY USA_ATCF_ID USA_LAT USA_LON USA_RECORD USA_STATUS USA_WIND USA_PRES USA_SSHS USA_R34_NE USA_R34_SE USA_R34_SW USA_R34_NW USA_R50_NE USA_R50_SE USA_R50_SW USA_R50_NW USA_R64_NE USA_R64_SE USA_R64_SW USA_R64_NW USA_POCI USA_ROCI USA_RMW USA_EYE TOKYO_LAT TOKYO_LON TOKYO_GRADE TOKYO_WIND TOKYO_PRES TOKYO_R50_DIR TOKYO_R50_LONG TOKYO_R50_SHORT TOKYO_R30_DIR TOKYO_R30_LONG TOKYO_R30_SHORT TOKYO_LAND CMA_LAT CMA_LON CMA_CAT CMA_WIND CMA_PRES HKO_LAT HKO_LON HKO_CAT HKO_WIND HKO_PRES NEWDELHI_LAT NEWDELHI_LON NEWDELHI_GRADE NEWDELHI_WIND NEWDELHI_PRES NEWDELHI_CI NEWDELHI_DP NEWDELHI_POCI REUNION_LAT REUNION_LON REUNION_TYPE REUNION_WIND REUNION_PRES REUNION_TNUM REUNION_CI REUNION_RMW REUNION_R34_NE REUNION_R34_SE REUNION_R34_SW REUNION_R34_NW REUNION_R50_NE REUNION_R50_SE REUNION_R50_SW REUNION_R50_NW REUNION_R64_NE REUNION_R64_SE REUNION_R64_SW REUNION_R64_NW BOM_LAT BOM_LON BOM_TYPE BOM_WIND BOM_PRES BOM_TNUM BOM_CI BOM_RMW BOM_R34_NE BOM_R34_SE BOM_R34_SW BOM_R34_NW BOM_R50_NE BOM_R50_SE BOM_R50_SW BOM_R50_NW BOM_R64_NE BOM_R64_SE BOM_R64_SW BOM_R64_NW BOM_ROCI BOM_POCI BOM_EYE BOM_POS_METHOD BOM_PRES_METHOD NADI_LAT NADI_LON NADI_CAT NADI_WIND NADI_PRES WELLINGTON_LAT WELLINGTON_LON WELLINGTON_WIND WELLINGTON_PRES DS824_LAT DS824_LON DS824_STAGE DS824_WIND DS824_PRES TD9636_LAT TD9636_LON TD9636_STAGE TD9636_WIND TD9636_PRES TD9635_LAT TD9635_LON TD9635_WIND TD9635_PRES TD9635_ROCI NEUMANN_LAT NEUMANN_LON NEUMANN_CLASS NEUMANN_WIND NEUMANN_PRES MLC_LAT MLC_LON MLC_CLASS MLC_WIND MLC_PRES USA_GUST BOM_GUST BOM_GUST_PER REUNION_GUST REUNION_GUST_PER USA_SEAHGT USA_SEARAD_NE USA_SEARAD_SE USA_SEARAD_SW USA_SEARAD_NW STORM_SPEED STORM_DIR
1955104S07093 1955 28 SI WA NOT_NAMED 1955-04-14 06:00:00 TS -7.30000 92.6000 main 939 939 O________OO___ jtwc_sh SH261955 -7.30000 92.6000 -1 -7.30000 92.6000 TC 25 -7.30000 92.6000 7 9 249
1955104S07093 1955 28 SI WA NOT_NAMED 1955-04-14 09:00:00 TS -7.45100 92.1963 main 987 987 P________PP___ SH261955 -7.45760 92.1826 -1 -7.45760 92.1826 TC 25 -7.43781 92.2237 7 8 249
1955104S07093 1955 28 SI WA NOT_NAMED 1955-04-14 12:00:00 TS -7.59012 91.8193 main 1028 1028 O________OP___ jtwc_sh SH261955 -7.60000 91.8000 -1 -7.60000 91.8000 TC 25 -7.57036 91.8578 7 7 250
1955104S07093 1955 28 SI WA NOT_NAMED 1955-04-14 15:00:00 TS -7.70754 91.4893 main 1060 1060 P________PP___ SH261955 -7.71496 91.4775 -1 -7.71496 91.4775 TC 25 -7.69272 91.5130 7 7 251
1955104S07093 1955 28 SI WA NOT_NAMED 1955-04-14 18:00:00 TS -7.80000 91.2000 main 1093 1093 O________OO___ jtwc_sh SH261955 -7.80000 91.2000 -1 -7.80000 91.2000 TC 25 -7.80000 91.2000 1 6 254
1955104S07093 1955 28 SI WA NOT_NAMED 1955-04-14 21:00:00 TS -7.86305 90.9367 main 1126 1126 P________PP___ SH261955 -7.84997 90.9425 -1 -7.84997 90.9425 TC 25 -7.88921 90.9252 1 5 256
1955104S07093 1955 28 SI WA NOT_NAMED 1955-04-15 00:00:00 TS -7.92160 90.6925 main 1144 1144 O________OP___ jtwc_sh SH261955 -7.90000 90.7000 -1 -7.90000 90.7000 TC 25 -7.96479 90.6774 1 5 253
1955104S07093 1955 28 SI WA NOT_NAMED 1955-04-15 03:00:00 TS -8.01097 90.4520 main 1168 1168 P________PP___ SH261955 -7.99997 90.4575 -1 -7.99997 90.4575 TC 25 -8.03298 90.4408 1 5 250
1955104S07093 1955 28 SI WA NOT_NAMED 1955-04-15 06:00:00 TS -8.10000 90.2000 main 1201 1201 O________OO___ jtwc_sh SH261955 -8.10000 90.2000 -1 -8.10000 90.2000 TC 25 -8.10000 90.2000 1 6 255
1955104S07093 1955 28 SI MM NOT_NAMED 1955-04-15 09:00:00 TS -8.15698 89.9093 main 1235 1235 P________PP___ SH261955 -8.15001 89.9000 -1 -8.15001 89.9000 TC 25 -8.17092 89.9281 1 6 259
1955104S07093 1955 28 SI MM NOT_NAMED 1955-04-15 12:00:00 TS -8.21416 89.6166 main 1262 1262 O________OP___ jtwc_sh SH261955 -8.20000 89.6000 -1 -8.20000 89.6000 TC 25 -8.24249 89.6499 1 6 255
1955104S07093 1955 28 SI MM NOT_NAMED 1955-04-15 15:00:00 TS -8.30091 89.3523 main 1286 1286 P________PP___ SH261955 -8.29247 89.3425 -1 -8.29247 89.3425 TC 25 -8.31780 89.3718 1 5 250
1955104S07093 1955 28 SI MM NOT_NAMED 1955-04-15 18:00:00 TS -8.40000 89.1000 main 1320 1320 O________OO___ jtwc_sh SH261955 -8.40000 89.1000 -1 -8.40000 89.1000 TC 25 -8.40000 89.1000 1 5 248
1955104S07093 1955 28 SI MM NOT_NAMED 1955-04-15 21:00:00 TS -8.50028 88.8476 main 1353 1353 P________PP___ SH261955 -8.49998 88.8500 -1 -8.49998 88.8500 TC 25 -8.50087 88.8428 1 5 248
1955104S07093 1955 28 SI MM NOT_NAMED 1955-04-16 00:00:00 TS -8.60247 88.5975 main 1378 1378 O________OP___ jtwc_sh SH261955 -8.60000 88.6000 -1 -8.60000 88.6000 TC 25 -8.60741 88.5925 1 5 247
1955104S07093 1955 28 SI MM NOT_NAMED 1955-04-16 03:00:00 TS -8.70840 88.3487 main 1412 1412 P________PP___ SH261955 -8.70748 88.3500 -1 -8.70748 88.3500 TC 25 -8.71025 88.3460 1 5 248
1955104S07093 1955 28 SI MM NOT_NAMED 1955-04-16 06:00:00 TS -8.80000 88.1000 main 1436 1436 O________OO___ jtwc_sh SH261955 -8.80000 88.1000 -1 -8.80000 88.1000 TC 25 -8.80000 88.1000 1 5 253
1955104S07093 1955 28 SI MM NOT_NAMED 1955-04-16 09:00:00 TS -8.85840 87.8513 main 1461 1461 P________PP___ SH261955 -8.85748 87.8500 -1 -8.85748 87.8500 TC 25 -8.86024 87.8540 1 5 258
1955104S07093 1955 28 SI MM NOT_NAMED 1955-04-16 12:00:00 TS -8.90247 87.6025 main 1489 1489 O________OP___ jtwc_sh SH261955 -8.90000 87.6000 -1 -8.90000 87.6000 TC 25 -8.90740 87.6074 1 5 259
1955104S07093 1955 28 SI MM NOT_NAMED 1955-04-16 15:00:00 TS -8.95028 87.3524 main 1513 1513 P________PP___ SH261955 -8.94998 87.3500 -1 -8.94998 87.3500 TC 25 -8.95086 87.3571 1 5 259
1955104S07093 1955 28 SI MM NOT_NAMED 1955-04-16 18:00:00 TS -9.00000 87.1000 main 1541 1541 O________OO___ jtwc_sh SH261955 -9.00000 87.1000 -1 -9.00000 87.1000 TC 25 -9.00000 87.1000 1 5 259
1955104S07093 1955 28 SI MM NOT_NAMED 1955-04-16 21:00:00 TS -9.04818 86.8517 main 1560 1560 P________PP___ SH261955 -9.04247 86.8575 -1 -9.04247 86.8575 TC 25 -9.05961 86.8402 1 5 258
1955104S07093 1955 28 SI MM NOT_NAMED 1955-04-17 00:00:00 TS -9.10913 86.5908 main 1594 1594 O________OP___ jtwc_sh SH261955 -9.10000 86.6000 -1 -9.10000 86.6000 TC 25 -9.12738 86.5724 1 6 255
1955104S07093 1955 28 SI MM NOT_NAMED 1955-04-17 03:00:00 TS -9.19715 86.3028 main 1628 1628 P________PP___ SH261955 -9.19249 86.3075 -1 -9.19249 86.3075 TC 25 -9.20646 86.2933 1 6 252
1955104S07093 1955 28 SI MM NOT_NAMED 1955-04-17 06:00:00 TS -9.30000 86.0000 main 1662 1662 O________OO___ jtwc_sh SH261955 -9.30000 86.0000 -1 -9.30000 86.0000 TC 25 -9.30000 86.0000 1 6 251
1955104S07093 1955 28 SI MM NOT_NAMED 1955-04-17 09:00:00 TS -9.39714 85.7028 main 1696 1696 P________PP___ SH261955 -9.39246 85.7075 -1 -9.39246 85.7075 TC 25 -9.40651 85.6934 1 6 251
1955104S07093 1955 28 SI MM NOT_NAMED 1955-04-17 12:00:00 TS -9.50914 85.3908 main 1731 1731 O________OP___ jtwc_sh SH261955 -9.50000 85.4000 -1 -9.50000 85.4000 TC 25 -9.52742 85.3724 1 7 249
1955104S07093 1955 28 SI MM NOT_NAMED 1955-04-17 15:00:00 TS -9.64819 85.0517 main 1765 1765 P________PP___ SH261955 -9.64249 85.0575 -1 -9.64249 85.0575 TC 25 -9.65961 85.0402 1 7 247
1955104S07093 1955 28 SI MM NOT_NAMED 1955-04-17 18:00:00 TS -9.80000 84.7000 main 1814 1814 O________OO___ jtwc_sh SH261955 -9.80000 84.7000 -1 -9.80000 84.7000 TC 25 -9.80000 84.7000 1 7 247
1955104S07093 1955 28 SI MM NOT_NAMED 1955-04-17 21:00:00 TS -9.94479 84.3591 main 1819 1819 P________PP___ SH261955 -9.94996 84.3500 -1 -9.94996 84.3500 TC 25 -9.93445 84.3773 1 7 247
1955104S07093 1955 28 SI MM NOT_NAMED 1955-04-18 00:00:00 TS -10.0924 84.0149 main 1832 1829 O________OP___ jtwc_sh SH261955 -10.1000 84.0000 -1 -10.1000 84.0000 TC 25 -10.0771 84.0446 1 7 246
1955104S07093 1955 28 SI MM NOT_NAMED 1955-04-18 03:00:00 TS -10.2387 83.6732 main 1836 1836 P________PP___ SH261955 -10.2424 83.6649 -1 -10.2424 83.6649 TC 30 -10.2313 83.6897 1 8 246
1955104S07093 1955 28 SI MM NOT_NAMED 1955-04-18 06:00:00 TS -10.4000 83.3000 main 1850 1849 O________OO___ jtwc_sh SH261955 -10.4000 83.3000 -1 -10.4000 83.3000 TC 35 -10.4000 83.3000 2 9 246
1955104S07093 1955 28 SI MM NOT_NAMED 1955-04-18 09:00:00 TS -10.5902 82.8659 main 1866 1863 P________PP___ SH261955 -10.5925 82.8725 -1 -10.5925 82.8725 TC 35 -10.5857 82.8529 2 10 246
1955104S07093 1955 28 SI MM NOT_NAMED 1955-04-18 12:00:00 TS -10.7951 82.3908 main 1881 1880 O________OP___ jtwc_sh SH261955 -10.8000 82.4000 -1 -10.8000 82.4000 TC 35 -10.7852 82.3725 2 10 247
1955104S07093 1955 28 SI MM NOT_NAMED 1955-04-18 15:00:00 TS -10.9973 81.8936 main 1899 1898 P________PP___ SH261955 -11.0000 81.9000 -1 -11.0000 81.9000 TC 35 -10.9920 81.8809 2 11 247
1955104S07093 1955 28 SI MM NOT_NAMED 1955-04-18 18:00:00 TS -11.2000 81.4000 main 1918 1917 O________OO___ jtwc_sh SH261955 -11.2000 81.4000 -1 -11.2000 81.4000 TC 35 -11.2000 81.4000 2 10 247
1955104S07093 1955 28 SI MM NOT_NAMED 1955-04-18 21:00:00 TS -11.3972 80.9367 main 1938 1938 P________PP___ SH261955 -11.3999 80.9349 -1 -11.3999 80.9349 TC 35 -11.3918 80.9402 2 10 246
1955104S07093 1955 28 SI MM NOT_NAMED 1955-04-19 00:00:00 TS -11.5950 80.4991 main 1960 1960 O________OP___ jtwc_sh SH261955 -11.6000 80.5000 -1 -11.6000 80.5000 TC 35 -11.5849 80.4973 2 9 245
1955104S07093 1955 28 SI MM NOT_NAMED 1955-04-19 03:00:00 TS -11.7902 80.0786 main 1983 1983 P________PP___ SH261955 -11.7925 80.0774 -1 -11.7925 80.0774 TC 50 -11.7856 80.0808 2 9 243
1955104S07093 1955 28 SI MM NOT_NAMED 1955-04-19 06:00:00 TS -12.0000 79.7000 main 2008 2008 O________OO___ jtwc_sh SH261955 -12.0000 79.7000 -1 -12.0000 79.7000 TC 65 -12.0000 79.7000 4 8 237
1955104S07093 1955 28 SI MM NOT_NAMED 1955-04-19 09:00:00 TS -12.2360 79.3752 main 2032 2032 P________PP___ SH261955 -12.2424 79.3849 -1 -12.2424 79.3849 TC 65 -12.2232 79.3557 4 8 231
1955104S07093 1955 28 SI MM NOT_NAMED 1955-04-19 12:00:00 TS -12.4874 79.0824 main 2068 2068 O________OP___ jtwc_sh SH261955 -12.5000 79.1000 -1 -12.5000 79.1000 TC 65 -12.4622 79.0472 4 8 229
1955104S07093 1955 28 SI MM NOT_NAMED 1955-04-19 15:00:00 TS -12.7300 78.7883 main 2093 2093 P________PP___ SH261955 -12.7350 78.7999 -1 -12.7350 78.7999 TC 65 -12.7201 78.7651 4 8 228
1955104S07093 1955 28 SI MM NOT_NAMED 1955-04-19 18:00:00 TS -13.0000 78.5000 main 2130 2130 O________OO___ jtwc_sh SH261955 -13.0000 78.5000 -1 -13.0000 78.5000 TC 65 -13.0000 78.5000 4 8 224
1955104S07093 1955 28 SI MM NOT_NAMED 1955-04-19 21:00:00 TS -13.3336 78.1871 main 2167 2167 P________PP___ SH261955 -13.3425 78.1851 -1 -13.3425 78.1851 TC 65 -13.3157 78.1913 4 9 220
1955104S07093 1955 28 SI MM NOT_NAMED 1955-04-20 00:00:00 TS -13.6834 77.9010 main 2216 2216 O________OP___ jtwc_sh SH261955 -13.7000 77.9000 -1 -13.7000 77.9000 TC 65 -13.6501 77.9030 4 8 217
1955104S07093 1955 28 SI MM NOT_NAMED 1955-04-20 03:00:00 TS -14.0048 77.6627 main 2227 2194 P________PP___ SH261955 -14.0150 77.6625 -1 -14.0150 77.6625 TC 65 -13.9845 77.6632 4 7 212
1955104S07093 1955 28 SI MM NOT_NAMED 1955-04-20 06:00:00 TS -14.3000 77.5000 main 2194 2177 O________OO___ jtwc_sh SH261955 -14.3000 77.5000 -1 -14.3000 77.5000 TC 65 -14.3000 77.5000 4 6 204
1955104S07093 1955 28 SI MM NOT_NAMED 1955-04-20 09:00:00 TS -14.5621 77.4117 main 2173 2165 P________PP___ SH261955 -14.5575 77.4050 -1 -14.5575 77.4050 TC 65 -14.5714 77.4253 4 5 189
1955104S07093 1955 28 SI MM NOT_NAMED 1955-04-20 12:00:00 TS -14.8074 77.4099 main 2165 2158 O________OP___ jtwc_sh SH261955 -14.8000 77.4000 -1 -14.8000 77.4000 TC 65 -14.8222 77.4297 4 5 172
1955104S07093 1955 28 SI MM NOT_NAMED 1955-04-20 15:00:00 TS -15.0540 77.4830 main 2164 2161 P________PP___ SH261955 -15.0500 77.4774 -1 -15.0500 77.4774 TC 65 -15.0620 77.4942 4 5 159
1955104S07093 1955 28 SI MM NOT_NAMED 1955-04-20 18:00:00 TS -15.3000 77.6000 main 2168 2164 O________OO___ jtwc_sh SH261955 -15.3000 77.6000 -1 -15.3000 77.6000 TC 65 -15.3000 77.6000 4 5 159
1955104S07093 1955 28 SI MM NOT_NAMED 1955-04-20 21:00:00 TS -15.5445 77.6814 main 2171 2165 P________PP___ SH261955 -15.5500 77.6851 -1 -15.5500 77.6851 TC 65 -15.5335 77.6739 4 5 159
1955104S07093 1955 28 SI MM NOT_NAMED 1955-04-21 00:00:00 TS -15.7899 77.7961 main 2172 2168 O________OP___ jtwc_sh SH261955 -15.8000 77.8000 -1 -15.8000 77.8000 TC 65 -15.7696 77.7883 4 6 151
1955104S07093 1955 28 SI MM NOT_NAMED 1955-04-21 03:00:00 TS -16.0302 77.9563 main 2186 2183 P________PP___ SH261955 -16.0349 77.9552 -1 -16.0349 77.9552 TC 65 -16.0209 77.9585 4 6 143
1955104S07093 1955 28 SI MM NOT_NAMED 1955-04-21 06:00:00 TS -16.3000 78.2000 main 2198 2198 O________OO___ jtwc_sh SH261955 -16.3000 78.2000 -1 -16.3000 78.2000 TC 65 -16.3000 78.2000 4 8 136
1955104S07093 1955 28 SI MM NOT_NAMED 1955-04-21 09:00:00 TS -16.6360 78.5571 main 2231 2228 P________PP___ SH261955 -16.6351 78.5699 -1 -16.6351 78.5699 TC 65 -16.6378 78.5316 4 10 133
1955104S07093 1955 28 SI MM NOT_NAMED 1955-04-21 12:00:00 TS -17.0002 78.9772 main 2262 2259 O________OP___ jtwc_sh SH261955 -17.0000 79.0000 -1 -17.0000 79.0000 TC 65 -17.0005 78.9316 4 11 132
1955104S07093 1955 28 SI MM NOT_NAMED 1955-04-21 15:00:00 TS -17.3642 79.3887 main 2294 2294 P________PP___ SH261955 -17.3649 79.4001 -1 -17.3649 79.4001 TC 65 -17.3628 79.3660 4 11 132
1955104S07093 1955 28 SI MM NOT_NAMED 1955-04-21 18:00:00 TS -17.7000 79.8000 main 2329 2329 O________OO___ jtwc_sh SH261955 -17.7000 79.8000 -1 -17.7000 79.8000 TC 65 -17.7000 79.8000 4 10 128
1955104S07093 1955 28 SI MM NOT_NAMED 1955-04-21 21:00:00 TS -17.9745 80.2071 main 2365 2365 P________PP___ SH261955 -17.9650 80.2077 -1 -17.9650 80.2077 TC 65 -17.9937 80.2058 4 9 124
1955104S07093 1955 28 SI MM NOT_NAMED 1955-04-22 00:00:00 TS -18.2167 80.5950 main 2403 2403 O________OP___ jtwc_sh SH261955 -18.2000 80.6000 -1 -18.2000 80.6000 TC 65 -18.2500 80.5851 4 9 124
1955104S07093 1955 28 SI MM NOT_NAMED 1955-04-22 03:00:00 TS -18.4572 80.9554 main 2439 2439 P________PP___ SH261955 -18.4451 80.9598 -1 -18.4451 80.9598 TC 65 -18.4814 80.9467 4 8 126
1955104S07093 1955 28 SI MM NOT_NAMED 1955-04-22 06:00:00 TS -18.7000 81.3000 main 2467 O________OO___ jtwc_sh SH261955 -18.7000 81.3000 -1 -18.7000 81.3000 TC 65 -18.7000 81.3000 4 8 127

IBTrACS Databaseについて

本データベースは、米国NOAAが公開する1842年以降の世界の熱帯低気圧のベストトラックデータアーカイブInternational Best Track Archive for Climate Stewardship (IBTrACS)を、ウェブで閲覧しやすい形式に変換したものです。

最終更新日:2021-11-26